sensor_id;sensor_type;location;lat;lon;timestamp;P1;durP1;ratioP1;P2;durP2;ratioP2
57249;SDS011;43102;52.014;-0.680;2023-04-29T00:00:00;12.40;;;8.50;;
57249;SDS011;43102;52.014;-0.680;2023-04-29T00:01:02;12.40;;;8.50;;
57249;SDS011;43102;52.014;-0.680;2023-04-29T00:02:00;12.40;;;8.50;;
57249;SDS011;43102;52.014;-0.680;2023-04-29T00:03:01;12.40;;;8.50;;
57249;SDS011;43102;52.014;-0.680;2023-04-29T00:04:01;12.40;;;8.50;;
57249;SDS011;43102;52.014;-0.680;2023-04-29T00:05:03;12.40;;;8.50;;
57249;SDS011;43102;52.014;-0.680;2023-04-29T00:06:01;12.40;;;8.50;;
57249;SDS011;43102;52.014;-0.680;2023-04-29T00:07:00;12.40;;;8.50;;
57249;SDS011;43102;52.014;-0.680;2023-04-29T00:08:00;12.40;;;8.50;;
57249;SDS011;43102;52.014;-0.680;2023-04-29T00:09:00;12.40;;;8.50;;
57249;SDS011;43102;52.014;-0.680;2023-04-29T00:10:00;12.40;;;8.50;;
57249;SDS011;43102;52.014;-0.680;2023-04-29T00:11:00;12.40;;;8.50;;
57249;SDS011;43102;52.014;-0.680;2023-04-29T00:12:01;12.40;;;8.50;;
57249;SDS011;43102;52.014;-0.680;2023-04-29T00:13:00;12.40;;;8.50;;
57249;SDS011;43102;52.014;-0.680;2023-04-29T00:14:00;12.40;;;8.50;;
57249;SDS011;43102;52.014;-0.680;2023-04-29T00:15:01;12.40;;;8.50;;
57249;SDS011;43102;52.014;-0.680;2023-04-29T00:16:00;12.40;;;8.50;;
57249;SDS011;43102;52.014;-0.680;2023-04-29T00:17:00;12.40;;;8.50;;
57249;SDS011;43102;52.014;-0.680;2023-04-29T00:18:00;12.40;;;8.50;;
57249;SDS011;43102;52.014;-0.680;2023-04-29T00:19:01;12.40;;;8.50;;
57249;SDS011;43102;52.014;-0.680;2023-04-29T00:20:00;12.40;;;8.50;;
57249;SDS011;43102;52.014;-0.680;2023-04-29T00:21:01;12.40;;;8.50;;
57249;SDS011;43102;52.014;-0.680;2023-04-29T00:22:00;12.40;;;8.50;;
57249;SDS011;43102;52.014;-0.680;2023-04-29T00:23:00;12.40;;;8.50;;
57249;SDS011;43102;52.014;-0.680;2023-04-29T00:24:00;13.50;;;8.70;;
57249;SDS011;43102;52.014;-0.680;2023-04-29T00:25:00;13.50;;;8.70;;
57249;SDS011;43102;52.014;-0.680;2023-04-29T00:26:00;13.50;;;8.70;;
57249;SDS011;43102;52.014;-0.680;2023-04-29T00:27:01;13.50;;;8.70;;
57249;SDS011;43102;52.014;-0.680;2023-04-29T00:28:01;13.50;;;8.70;;
57249;SDS011;43102;52.014;-0.680;2023-04-29T00:29:00;13.50;;;8.70;;
57249;SDS011;43102;52.014;-0.680;2023-04-29T00:30:00;13.50;;;8.70;;
57249;SDS011;43102;52.014;-0.680;2023-04-29T00:31:00;13.50;;;8.70;;
57249;SDS011;43102;52.014;-0.680;2023-04-29T00:32:00;13.50;;;8.70;;
57249;SDS011;43102;52.014;-0.680;2023-04-29T00:33:00;13.50;;;8.70;;
57249;SDS011;43102;52.014;-0.680;2023-04-29T00:34:00;13.50;;;8.70;;
57249;SDS011;43102;52.014;-0.680;2023-04-29T00:35:01;13.50;;;8.70;;
57249;SDS011;43102;52.014;-0.680;2023-04-29T00:36:01;13.50;;;8.70;;
57249;SDS011;43102;52.014;-0.680;2023-04-29T00:37:00;13.50;;;8.70;;
57249;SDS011;43102;52.014;-0.680;2023-04-29T00:38:00;13.50;;;8.70;;
57249;SDS011;43102;52.014;-0.680;2023-04-29T00:39:00;13.50;;;8.70;;
57249;SDS011;43102;52.014;-0.680;2023-04-29T00:40:00;13.50;;;8.70;;
57249;SDS011;43102;52.014;-0.680;2023-04-29T00:41:00;13.50;;;8.70;;
57249;SDS011;43102;52.014;-0.680;2023-04-29T00:42:02;13.50;;;8.70;;
57249;SDS011;43102;52.014;-0.680;2023-04-29T00:43:00;13.50;;;8.70;;
57249;SDS011;43102;52.014;-0.680;2023-04-29T00:44:00;13.50;;;8.70;;
57249;SDS011;43102;52.014;-0.680;2023-04-29T00:45:01;13.50;;;8.70;;
57249;SDS011;43102;52.014;-0.680;2023-04-29T00:46:00;13.50;;;8.70;;
57249;SDS011;43102;52.014;-0.680;2023-04-29T00:47:01;13.50;;;8.70;;
57249;SDS011;43102;52.014;-0.680;2023-04-29T00:48:00;13.50;;;8.70;;
57249;SDS011;43102;52.014;-0.680;2023-04-29T00:49:00;13.50;;;8.70;;
57249;SDS011;43102;52.014;-0.680;2023-04-29T00:50:00;13.50;;;8.70;;
57249;SDS011;43102;52.014;-0.680;2023-04-29T00:51:01;13.50;;;8.70;;
57249;SDS011;43102;52.014;-0.680;2023-04-29T00:52:00;13.50;;;8.70;;
57249;SDS011;43102;52.014;-0.680;2023-04-29T00:53:00;13.50;;;8.70;;
57249;SDS011;43102;52.014;-0.680;2023-04-29T00:54:01;16.20;;;10.00;;
57249;SDS011;43102;52.014;-0.680;2023-04-29T00:55:01;16.20;;;10.00;;
57249;SDS011;43102;52.014;-0.680;2023-04-29T00:56:00;16.20;;;10.00;;
57249;SDS011;43102;52.014;-0.680;2023-04-29T00:57:02;16.20;;;10.00;;
57249;SDS011;43102;52.014;-0.680;2023-04-29T00:58:02;16.20;;;10.00;;
57249;SDS011;43102;52.014;-0.680;2023-04-29T00:59:01;16.20;;;10.00;;
57249;SDS011;43102;52.014;-0.680;2023-04-29T01:00:00;16.20;;;10.00;;
57249;SDS011;43102;52.014;-0.680;2023-04-29T01:01:01;16.20;;;10.00;;
57249;SDS011;43102;52.014;-0.680;2023-04-29T01:02:02;16.20;;;10.00;;
57249;SDS011;43102;52.014;-0.680;2023-04-29T01:03:00;16.20;;;10.00;;
57249;SDS011;43102;52.014;-0.680;2023-04-29T01:04:01;16.20;;;10.00;;
57249;SDS011;43102;52.014;-0.680;2023-04-29T01:05:00;16.20;;;10.00;;
57249;SDS011;43102;52.014;-0.680;2023-04-29T01:07:12;16.20;;;10.00;;
57249;SDS011;43102;52.014;-0.680;2023-04-29T01:08:28;16.20;;;10.00;;
57249;SDS011;43102;52.014;-0.680;2023-04-29T01:09:16;16.20;;;10.00;;
57249;SDS011;43102;52.014;-0.680;2023-04-29T01:10:08;16.20;;;10.00;;
57249;SDS011;43102;52.014;-0.680;2023-04-29T01:11:09;16.20;;;10.00;;
57249;SDS011;43102;52.014;-0.680;2023-04-29T01:13:05;16.20;;;10.00;;
57249;SDS011;43102;52.014;-0.680;2023-04-29T01:14:02;16.20;;;10.00;;
57249;SDS011;43102;52.014;-0.680;2023-04-29T01:16:03;16.20;;;10.00;;
57249;SDS011;43102;52.014;-0.680;2023-04-29T01:17:07;16.20;;;10.00;;
57249;SDS011;43102;52.014;-0.680;2023-04-29T01:18:28;16.20;;;10.00;;
57249;SDS011;43102;52.014;-0.680;2023-04-29T01:19:03;16.20;;;10.00;;
57249;SDS011;43102;52.014;-0.680;2023-04-29T01:20:01;16.20;;;10.00;;
57249;SDS011;43102;52.014;-0.680;2023-04-29T01:21:00;16.20;;;10.00;;
57249;SDS011;43102;52.014;-0.680;2023-04-29T01:22:00;16.20;;;10.00;;
57249;SDS011;43102;52.014;-0.680;2023-04-29T01:23:00;16.20;;;10.00;;
57249;SDS011;43102;52.014;-0.680;2023-04-29T01:24:01;12.50;;;8.90;;
57249;SDS011;43102;52.014;-0.680;2023-04-29T01:25:00;12.50;;;8.90;;
57249;SDS011;43102;52.014;-0.680;2023-04-29T01:26:00;12.50;;;8.90;;
57249;SDS011;43102;52.014;-0.680;2023-04-29T01:27:17;12.50;;;8.90;;
57249;SDS011;43102;52.014;-0.680;2023-04-29T01:29:10;12.50;;;8.90;;
57249;SDS011;43102;52.014;-0.680;2023-04-29T01:32:04;12.50;;;8.90;;
57249;SDS011;43102;52.014;-0.680;2023-04-29T01:34:09;12.50;;;8.90;;
57249;SDS011;43102;52.014;-0.680;2023-04-29T01:35:15;12.50;;;8.90;;
57249;SDS011;43102;52.014;-0.680;2023-04-29T01:37:09;12.50;;;8.90;;
57249;SDS011;43102;52.014;-0.680;2023-04-29T01:38:12;12.50;;;8.90;;
57249;SDS011;43102;52.014;-0.680;2023-04-29T01:40:04;12.50;;;8.90;;
57249;SDS011;43102;52.014;-0.680;2023-04-29T01:41:06;12.50;;;8.90;;
57249;SDS011;43102;52.014;-0.680;2023-04-29T01:42:07;12.50;;;8.90;;
57249;SDS011;43102;52.014;-0.680;2023-04-29T01:43:02;12.50;;;8.90;;
57249;SDS011;43102;52.014;-0.680;2023-04-29T01:44:01;12.50;;;8.90;;
57249;SDS011;43102;52.014;-0.680;2023-04-29T01:45:02;12.50;;;8.90;;
57249;SDS011;43102;52.014;-0.680;2023-04-29T01:46:03;12.50;;;8.90;;
57249;SDS011;43102;52.014;-0.680;2023-04-29T01:47:01;12.50;;;8.90;;
57249;SDS011;43102;52.014;-0.680;2023-04-29T01:48:01;12.50;;;8.90;;
57249;SDS011;43102;52.014;-0.680;2023-04-29T01:49:00;12.50;;;8.90;;
57249;SDS011;43102;52.014;-0.680;2023-04-29T01:50:01;12.50;;;8.90;;
57249;SDS011;43102;52.014;-0.680;2023-04-29T01:51:00;12.50;;;8.90;;
57249;SDS011;43102;52.014;-0.680;2023-04-29T01:52:00;12.50;;;8.90;;
57249;SDS011;43102;52.014;-0.680;2023-04-29T01:53:00;12.50;;;8.90;;
57249;SDS011;43102;52.014;-0.680;2023-04-29T01:54:00;9.60;;;6.40;;
57249;SDS011;43102;52.014;-0.680;2023-04-29T01:55:00;9.60;;;6.40;;
57249;SDS011;43102;52.014;-0.680;2023-04-29T01:56:00;9.60;;;6.40;;
57249;SDS011;43102;52.014;-0.680;2023-04-29T01:57:01;9.60;;;6.40;;
57249;SDS011;43102;52.014;-0.680;2023-04-29T01:58:00;9.60;;;6.40;;
57249;SDS011;43102;52.014;-0.680;2023-04-29T01:59:00;9.60;;;6.40;;
57249;SDS011;43102;52.014;-0.680;2023-04-29T02:00:01;9.60;;;6.40;;
57249;SDS011;43102;52.014;-0.680;2023-04-29T02:01:00;9.60;;;6.40;;
57249;SDS011;43102;52.014;-0.680;2023-04-29T02:02:00;9.60;;;6.40;;
57249;SDS011;43102;52.014;-0.680;2023-04-29T02:03:00;9.60;;;6.40;;
57249;SDS011;43102;52.014;-0.680;2023-04-29T02:04:01;9.60;;;6.40;;
57249;SDS011;43102;52.014;-0.680;2023-04-29T02:05:01;9.60;;;6.40;;
57249;SDS011;43102;52.014;-0.680;2023-04-29T02:06:01;9.60;;;6.40;;
57249;SDS011;43102;52.014;-0.680;2023-04-29T02:07:00;9.60;;;6.40;;
57249;SDS011;43102;52.014;-0.680;2023-04-29T02:08:01;9.60;;;6.40;;
57249;SDS011;43102;52.014;-0.680;2023-04-29T02:09:00;9.60;;;6.40;;
57249;SDS011;43102;52.014;-0.680;2023-04-29T02:10:00;9.60;;;6.40;;
57249;SDS011;43102;52.014;-0.680;2023-04-29T02:11:00;9.60;;;6.40;;
57249;SDS011;43102;52.014;-0.680;2023-04-29T02:12:01;9.60;;;6.40;;
57249;SDS011;43102;52.014;-0.680;2023-04-29T02:13:00;9.60;;;6.40;;
57249;SDS011;43102;52.014;-0.680;2023-04-29T02:14:00;9.60;;;6.40;;
57249;SDS011;43102;52.014;-0.680;2023-04-29T02:15:00;9.60;;;6.40;;
57249;SDS011;43102;52.014;-0.680;2023-04-29T02:16:08;9.60;;;6.40;;
57249;SDS011;43102;52.014;-0.680;2023-04-29T02:17:00;9.60;;;6.40;;
57249;SDS011;43102;52.014;-0.680;2023-04-29T02:18:00;9.60;;;6.40;;
57249;SDS011;43102;52.014;-0.680;2023-04-29T02:19:00;9.60;;;6.40;;
57249;SDS011;43102;52.014;-0.680;2023-04-29T02:20:01;9.60;;;6.40;;
57249;SDS011;43102;52.014;-0.680;2023-04-29T02:21:01;9.60;;;6.40;;
57249;SDS011;43102;52.014;-0.680;2023-04-29T02:22:00;9.60;;;6.40;;
57249;SDS011;43102;52.014;-0.680;2023-04-29T02:23:00;9.60;;;6.40;;
57249;SDS011;43102;52.014;-0.680;2023-04-29T02:24:01;11.10;;;7.50;;
57249;SDS011;43102;52.014;-0.680;2023-04-29T02:25:00;11.10;;;7.50;;
57249;SDS011;43102;52.014;-0.680;2023-04-29T02:26:00;11.10;;;7.50;;
57249;SDS011;43102;52.014;-0.680;2023-04-29T02:27:04;11.10;;;7.50;;
57249;SDS011;43102;52.014;-0.680;2023-04-29T02:28:00;11.10;;;7.50;;
57249;SDS011;43102;52.014;-0.680;2023-04-29T02:29:00;11.10;;;7.50;;
57249;SDS011;43102;52.014;-0.680;2023-04-29T02:30:00;11.10;;;7.50;;
57249;SDS011;43102;52.014;-0.680;2023-04-29T02:31:01;11.10;;;7.50;;
57249;SDS011;43102;52.014;-0.680;2023-04-29T02:32:00;11.10;;;7.50;;
57249;SDS011;43102;52.014;-0.680;2023-04-29T02:33:00;11.10;;;7.50;;
57249;SDS011;43102;52.014;-0.680;2023-04-29T02:34:00;11.10;;;7.50;;
57249;SDS011;43102;52.014;-0.680;2023-04-29T02:35:00;11.10;;;7.50;;
57249;SDS011;43102;52.014;-0.680;2023-04-29T02:36:00;11.10;;;7.50;;
57249;SDS011;43102;52.014;-0.680;2023-04-29T02:37:00;11.10;;;7.50;;
57249;SDS011;43102;52.014;-0.680;2023-04-29T02:38:01;11.10;;;7.50;;
57249;SDS011;43102;52.014;-0.680;2023-04-29T02:39:00;11.10;;;7.50;;
57249;SDS011;43102;52.014;-0.680;2023-04-29T02:40:01;11.10;;;7.50;;
57249;SDS011;43102;52.014;-0.680;2023-04-29T02:41:00;11.10;;;7.50;;
57249;SDS011;43102;52.014;-0.680;2023-04-29T02:42:00;11.10;;;7.50;;
57249;SDS011;43102;52.014;-0.680;2023-04-29T02:43:00;11.10;;;7.50;;
57249;SDS011;43102;52.014;-0.680;2023-04-29T02:44:00;11.10;;;7.50;;
57249;SDS011;43102;52.014;-0.680;2023-04-29T02:45:00;11.10;;;7.50;;
57249;SDS011;43102;52.014;-0.680;2023-04-29T02:46:00;11.10;;;7.50;;
57249;SDS011;43102;52.014;-0.680;2023-04-29T02:47:00;11.10;;;7.50;;
57249;SDS011;43102;52.014;-0.680;2023-04-29T02:48:00;11.10;;;7.50;;
57249;SDS011;43102;52.014;-0.680;2023-04-29T02:49:00;11.10;;;7.50;;
57249;SDS011;43102;52.014;-0.680;2023-04-29T02:50:00;11.10;;;7.50;;
57249;SDS011;43102;52.014;-0.680;2023-04-29T02:51:00;11.10;;;7.50;;
57249;SDS011;43102;52.014;-0.680;2023-04-29T02:52:00;11.10;;;7.50;;
57249;SDS011;43102;52.014;-0.680;2023-04-29T02:53:00;11.10;;;7.50;;
57249;SDS011;43102;52.014;-0.680;2023-04-29T02:54:00;10.30;;;7.70;;
57249;SDS011;43102;52.014;-0.680;2023-04-29T02:55:00;10.30;;;7.70;;
57249;SDS011;43102;52.014;-0.680;2023-04-29T02:56:00;10.30;;;7.70;;
57249;SDS011;43102;52.014;-0.680;2023-04-29T02:57:00;10.30;;;7.70;;
57249;SDS011;43102;52.014;-0.680;2023-04-29T02:58:00;10.30;;;7.70;;
57249;SDS011;43102;52.014;-0.680;2023-04-29T02:59:00;10.30;;;7.70;;
57249;SDS011;43102;52.014;-0.680;2023-04-29T03:00:00;10.30;;;7.70;;
57249;SDS011;43102;52.014;-0.680;2023-04-29T03:01:00;10.30;;;7.70;;
57249;SDS011;43102;52.014;-0.680;2023-04-29T03:02:01;10.30;;;7.70;;
57249;SDS011;43102;52.014;-0.680;2023-04-29T03:03:00;10.30;;;7.70;;
57249;SDS011;43102;52.014;-0.680;2023-04-29T03:04:01;10.30;;;7.70;;
57249;SDS011;43102;52.014;-0.680;2023-04-29T03:05:00;10.30;;;7.70;;
57249;SDS011;43102;52.014;-0.680;2023-04-29T03:06:00;10.30;;;7.70;;
57249;SDS011;43102;52.014;-0.680;2023-04-29T03:07:00;10.30;;;7.70;;
57249;SDS011;43102;52.014;-0.680;2023-04-29T03:08:00;10.30;;;7.70;;
57249;SDS011;43102;52.014;-0.680;2023-04-29T03:09:00;10.30;;;7.70;;
57249;SDS011;43102;52.014;-0.680;2023-04-29T03:10:00;10.30;;;7.70;;
57249;SDS011;43102;52.014;-0.680;2023-04-29T03:11:00;10.30;;;7.70;;
57249;SDS011;43102;52.014;-0.680;2023-04-29T03:12:01;10.30;;;7.70;;
57249;SDS011;43102;52.014;-0.680;2023-04-29T03:13:00;10.30;;;7.70;;
57249;SDS011;43102;52.014;-0.680;2023-04-29T03:14:00;10.30;;;7.70;;
57249;SDS011;43102;52.014;-0.680;2023-04-29T03:15:00;10.30;;;7.70;;
57249;SDS011;43102;52.014;-0.680;2023-04-29T03:16:00;10.30;;;7.70;;
57249;SDS011;43102;52.014;-0.680;2023-04-29T03:17:00;10.30;;;7.70;;
57249;SDS011;43102;52.014;-0.680;2023-04-29T03:18:02;10.30;;;7.70;;
57249;SDS011;43102;52.014;-0.680;2023-04-29T03:19:00;10.30;;;7.70;;
57249;SDS011;43102;52.014;-0.680;2023-04-29T03:20:00;10.30;;;7.70;;
57249;SDS011;43102;52.014;-0.680;2023-04-29T03:21:03;10.30;;;7.70;;
57249;SDS011;43102;52.014;-0.680;2023-04-29T03:22:00;10.30;;;7.70;;
57249;SDS011;43102;52.014;-0.680;2023-04-29T03:23:01;10.30;;;7.70;;
57249;SDS011;43102;52.014;-0.680;2023-04-29T03:24:00;12.40;;;9.90;;
57249;SDS011;43102;52.014;-0.680;2023-04-29T03:25:00;12.40;;;9.90;;
57249;SDS011;43102;52.014;-0.680;2023-04-29T03:26:00;12.40;;;9.90;;
57249;SDS011;43102;52.014;-0.680;2023-04-29T03:27:00;12.40;;;9.90;;
57249;SDS011;43102;52.014;-0.680;2023-04-29T03:28:00;12.40;;;9.90;;
57249;SDS011;43102;52.014;-0.680;2023-04-29T03:29:00;12.40;;;9.90;;
57249;SDS011;43102;52.014;-0.680;2023-04-29T03:30:01;12.40;;;9.90;;
57249;SDS011;43102;52.014;-0.680;2023-04-29T03:31:00;12.40;;;9.90;;
57249;SDS011;43102;52.014;-0.680;2023-04-29T03:32:01;12.40;;;9.90;;
57249;SDS011;43102;52.014;-0.680;2023-04-29T03:33:00;12.40;;;9.90;;
57249;SDS011;43102;52.014;-0.680;2023-04-29T03:34:00;12.40;;;9.90;;
57249;SDS011;43102;52.014;-0.680;2023-04-29T03:35:00;12.40;;;9.90;;
57249;SDS011;43102;52.014;-0.680;2023-04-29T03:36:00;12.40;;;9.90;;
57249;SDS011;43102;52.014;-0.680;2023-04-29T03:37:00;12.40;;;9.90;;
57249;SDS011;43102;52.014;-0.680;2023-04-29T03:38:00;12.40;;;9.90;;
57249;SDS011;43102;52.014;-0.680;2023-04-29T03:39:00;12.40;;;9.90;;
57249;SDS011;43102;52.014;-0.680;2023-04-29T03:40:00;12.40;;;9.90;;
57249;SDS011;43102;52.014;-0.680;2023-04-29T03:41:00;12.40;;;9.90;;
57249;SDS011;43102;52.014;-0.680;2023-04-29T03:42:01;12.40;;;9.90;;
57249;SDS011;43102;52.014;-0.680;2023-04-29T03:43:00;12.40;;;9.90;;
57249;SDS011;43102;52.014;-0.680;2023-04-29T03:44:00;12.40;;;9.90;;
57249;SDS011;43102;52.014;-0.680;2023-04-29T03:45:01;12.40;;;9.90;;
57249;SDS011;43102;52.014;-0.680;2023-04-29T03:46:00;12.40;;;9.90;;
57249;SDS011;43102;52.014;-0.680;2023-04-29T03:47:00;12.40;;;9.90;;
57249;SDS011;43102;52.014;-0.680;2023-04-29T03:48:01;12.40;;;9.90;;
57249;SDS011;43102;52.014;-0.680;2023-04-29T03:49:01;12.40;;;9.90;;
57249;SDS011;43102;52.014;-0.680;2023-04-29T03:50:01;12.40;;;9.90;;
57249;SDS011;43102;52.014;-0.680;2023-04-29T03:51:00;12.40;;;9.90;;
57249;SDS011;43102;52.014;-0.680;2023-04-29T03:52:00;12.40;;;9.90;;
57249;SDS011;43102;52.014;-0.680;2023-04-29T03:53:00;12.40;;;9.90;;
57249;SDS011;43102;52.014;-0.680;2023-04-29T03:54:00;10.50;;;7.90;;
57249;SDS011;43102;52.014;-0.680;2023-04-29T03:55:00;10.50;;;7.90;;
57249;SDS011;43102;52.014;-0.680;2023-04-29T03:56:00;10.50;;;7.90;;
57249;SDS011;43102;52.014;-0.680;2023-04-29T03:57:02;10.50;;;7.90;;
57249;SDS011;43102;52.014;-0.680;2023-04-29T03:58:00;10.50;;;7.90;;
57249;SDS011;43102;52.014;-0.680;2023-04-29T03:59:00;10.50;;;7.90;;
57249;SDS011;43102;52.014;-0.680;2023-04-29T04:00:00;10.50;;;7.90;;
57249;SDS011;43102;52.014;-0.680;2023-04-29T04:01:00;10.50;;;7.90;;
57249;SDS011;43102;52.014;-0.680;2023-04-29T04:02:00;10.50;;;7.90;;
57249;SDS011;43102;52.014;-0.680;2023-04-29T04:03:04;10.50;;;7.90;;
57249;SDS011;43102;52.014;-0.680;2023-04-29T04:04:00;10.50;;;7.90;;
57249;SDS011;43102;52.014;-0.680;2023-04-29T04:05:00;10.50;;;7.90;;
57249;SDS011;43102;52.014;-0.680;2023-04-29T04:06:00;10.50;;;7.90;;
57249;SDS011;43102;52.014;-0.680;2023-04-29T04:07:00;10.50;;;7.90;;
57249;SDS011;43102;52.014;-0.680;2023-04-29T04:08:00;10.50;;;7.90;;
57249;SDS011;43102;52.014;-0.680;2023-04-29T04:09:00;10.50;;;7.90;;
57249;SDS011;43102;52.014;-0.680;2023-04-29T04:10:00;10.50;;;7.90;;
57249;SDS011;43102;52.014;-0.680;2023-04-29T04:11:02;10.50;;;7.90;;
57249;SDS011;43102;52.014;-0.680;2023-04-29T04:12:00;10.50;;;7.90;;
57249;SDS011;43102;52.014;-0.680;2023-04-29T04:13:00;10.50;;;7.90;;
57249;SDS011;43102;52.014;-0.680;2023-04-29T04:14:00;10.50;;;7.90;;
57249;SDS011;43102;52.014;-0.680;2023-04-29T04:15:02;10.50;;;7.90;;
57249;SDS011;43102;52.014;-0.680;2023-04-29T04:16:00;10.50;;;7.90;;
57249;SDS011;43102;52.014;-0.680;2023-04-29T04:17:00;10.50;;;7.90;;
57249;SDS011;43102;52.014;-0.680;2023-04-29T04:18:00;10.50;;;7.90;;
57249;SDS011;43102;52.014;-0.680;2023-04-29T04:19:00;10.50;;;7.90;;
57249;SDS011;43102;52.014;-0.680;2023-04-29T04:20:00;10.50;;;7.90;;
57249;SDS011;43102;52.014;-0.680;2023-04-29T04:21:05;10.50;;;7.90;;
57249;SDS011;43102;52.014;-0.680;2023-04-29T04:22:02;10.50;;;7.90;;
57249;SDS011;43102;52.014;-0.680;2023-04-29T04:23:00;10.50;;;7.90;;
57249;SDS011;43102;52.014;-0.680;2023-04-29T04:24:00;9.20;;;7.20;;
57249;SDS011;43102;52.014;-0.680;2023-04-29T04:25:00;9.20;;;7.20;;
57249;SDS011;43102;52.014;-0.680;2023-04-29T04:26:00;9.20;;;7.20;;
57249;SDS011;43102;52.014;-0.680;2023-04-29T04:27:00;9.20;;;7.20;;
57249;SDS011;43102;52.014;-0.680;2023-04-29T04:28:00;9.20;;;7.20;;
57249;SDS011;43102;52.014;-0.680;2023-04-29T04:29:00;9.20;;;7.20;;
57249;SDS011;43102;52.014;-0.680;2023-04-29T04:30:00;9.20;;;7.20;;
57249;SDS011;43102;52.014;-0.680;2023-04-29T04:31:01;9.20;;;7.20;;
57249;SDS011;43102;52.014;-0.680;2023-04-29T04:32:01;9.20;;;7.20;;
57249;SDS011;43102;52.014;-0.680;2023-04-29T04:33:01;9.20;;;7.20;;
57249;SDS011;43102;52.014;-0.680;2023-04-29T04:34:01;9.20;;;7.20;;
57249;SDS011;43102;52.014;-0.680;2023-04-29T04:35:00;9.20;;;7.20;;
57249;SDS011;43102;52.014;-0.680;2023-04-29T04:36:00;9.20;;;7.20;;
57249;SDS011;43102;52.014;-0.680;2023-04-29T04:37:01;9.20;;;7.20;;
57249;SDS011;43102;52.014;-0.680;2023-04-29T04:38:00;9.20;;;7.20;;
57249;SDS011;43102;52.014;-0.680;2023-04-29T04:39:00;9.20;;;7.20;;
57249;SDS011;43102;52.014;-0.680;2023-04-29T04:40:01;9.20;;;7.20;;
57249;SDS011;43102;52.014;-0.680;2023-04-29T04:41:01;9.20;;;7.20;;
57249;SDS011;43102;52.014;-0.680;2023-04-29T04:42:02;9.20;;;7.20;;
57249;SDS011;43102;52.014;-0.680;2023-04-29T04:43:00;9.20;;;7.20;;
57249;SDS011;43102;52.014;-0.680;2023-04-29T04:44:01;9.20;;;7.20;;
57249;SDS011;43102;52.014;-0.680;2023-04-29T04:45:00;9.20;;;7.20;;
57249;SDS011;43102;52.014;-0.680;2023-04-29T04:46:09;9.20;;;7.20;;
57249;SDS011;43102;52.014;-0.680;2023-04-29T04:47:01;9.20;;;7.20;;
57249;SDS011;43102;52.014;-0.680;2023-04-29T04:48:00;9.20;;;7.20;;
57249;SDS011;43102;52.014;-0.680;2023-04-29T04:49:00;9.20;;;7.20;;
57249;SDS011;43102;52.014;-0.680;2023-04-29T04:50:01;9.20;;;7.20;;
57249;SDS011;43102;52.014;-0.680;2023-04-29T04:51:06;9.20;;;7.20;;
57249;SDS011;43102;52.014;-0.680;2023-04-29T04:52:00;9.20;;;7.20;;
57249;SDS011;43102;52.014;-0.680;2023-04-29T04:53:01;9.20;;;7.20;;
57249;SDS011;43102;52.014;-0.680;2023-04-29T04:54:00;9.90;;;7.50;;
57249;SDS011;43102;52.014;-0.680;2023-04-29T04:55:00;9.90;;;7.50;;
57249;SDS011;43102;52.014;-0.680;2023-04-29T04:56:01;9.90;;;7.50;;
57249;SDS011;43102;52.014;-0.680;2023-04-29T04:57:04;9.90;;;7.50;;
57249;SDS011;43102;52.014;-0.680;2023-04-29T04:58:00;9.90;;;7.50;;
57249;SDS011;43102;52.014;-0.680;2023-04-29T04:59:00;9.90;;;7.50;;
57249;SDS011;43102;52.014;-0.680;2023-04-29T05:00:01;9.90;;;7.50;;
57249;SDS011;43102;52.014;-0.680;2023-04-29T05:01:01;9.90;;;7.50;;
57249;SDS011;43102;52.014;-0.680;2023-04-29T05:02:00;9.90;;;7.50;;
57249;SDS011;43102;52.014;-0.680;2023-04-29T05:03:01;9.90;;;7.50;;
57249;SDS011;43102;52.014;-0.680;2023-04-29T05:04:02;9.90;;;7.50;;
57249;SDS011;43102;52.014;-0.680;2023-04-29T05:05:00;9.90;;;7.50;;
57249;SDS011;43102;52.014;-0.680;2023-04-29T05:06:00;9.90;;;7.50;;
57249;SDS011;43102;52.014;-0.680;2023-04-29T05:07:00;9.90;;;7.50;;
57249;SDS011;43102;52.014;-0.680;2023-04-29T05:08:00;9.90;;;7.50;;
57249;SDS011;43102;52.014;-0.680;2023-04-29T05:09:00;9.90;;;7.50;;
57249;SDS011;43102;52.014;-0.680;2023-04-29T05:10:01;9.90;;;7.50;;
57249;SDS011;43102;52.014;-0.680;2023-04-29T05:11:00;9.90;;;7.50;;
57249;SDS011;43102;52.014;-0.680;2023-04-29T05:12:00;9.90;;;7.50;;
57249;SDS011;43102;52.014;-0.680;2023-04-29T05:13:00;9.90;;;7.50;;
57249;SDS011;43102;52.014;-0.680;2023-04-29T05:14:00;9.90;;;7.50;;
57249;SDS011;43102;52.014;-0.680;2023-04-29T05:15:00;9.90;;;7.50;;
57249;SDS011;43102;52.014;-0.680;2023-04-29T05:16:02;9.90;;;7.50;;
57249;SDS011;43102;52.014;-0.680;2023-04-29T05:17:00;9.90;;;7.50;;
57249;SDS011;43102;52.014;-0.680;2023-04-29T05:18:00;9.90;;;7.50;;
57249;SDS011;43102;52.014;-0.680;2023-04-29T05:19:00;9.90;;;7.50;;
57249;SDS011;43102;52.014;-0.680;2023-04-29T05:20:00;9.90;;;7.50;;
57249;SDS011;43102;52.014;-0.680;2023-04-29T05:21:00;9.90;;;7.50;;
57249;SDS011;43102;52.014;-0.680;2023-04-29T05:22:00;9.90;;;7.50;;
57249;SDS011;43102;52.014;-0.680;2023-04-29T05:23:00;9.90;;;7.50;;
57249;SDS011;43102;52.014;-0.680;2023-04-29T05:24:00;13.60;;;8.10;;
57249;SDS011;43102;52.014;-0.680;2023-04-29T05:25:02;13.60;;;8.10;;
57249;SDS011;43102;52.014;-0.680;2023-04-29T05:26:00;13.60;;;8.10;;
57249;SDS011;43102;52.014;-0.680;2023-04-29T05:27:00;13.60;;;8.10;;
57249;SDS011;43102;52.014;-0.680;2023-04-29T05:28:02;13.60;;;8.10;;
57249;SDS011;43102;52.014;-0.680;2023-04-29T05:29:00;13.60;;;8.10;;
57249;SDS011;43102;52.014;-0.680;2023-04-29T05:30:01;13.60;;;8.10;;
57249;SDS011;43102;52.014;-0.680;2023-04-29T05:31:00;13.60;;;8.10;;
57249;SDS011;43102;52.014;-0.680;2023-04-29T05:32:00;13.60;;;8.10;;
57249;SDS011;43102;52.014;-0.680;2023-04-29T05:33:00;13.60;;;8.10;;
57249;SDS011;43102;52.014;-0.680;2023-04-29T05:34:00;13.60;;;8.10;;
57249;SDS011;43102;52.014;-0.680;2023-04-29T05:35:01;13.60;;;8.10;;
57249;SDS011;43102;52.014;-0.680;2023-04-29T05:36:00;13.60;;;8.10;;
57249;SDS011;43102;52.014;-0.680;2023-04-29T05:37:01;13.60;;;8.10;;
57249;SDS011;43102;52.014;-0.680;2023-04-29T05:38:00;13.60;;;8.10;;
57249;SDS011;43102;52.014;-0.680;2023-04-29T05:39:00;13.60;;;8.10;;
57249;SDS011;43102;52.014;-0.680;2023-04-29T05:40:00;13.60;;;8.10;;
57249;SDS011;43102;52.014;-0.680;2023-04-29T05:41:02;13.60;;;8.10;;
57249;SDS011;43102;52.014;-0.680;2023-04-29T05:42:01;13.60;;;8.10;;
57249;SDS011;43102;52.014;-0.680;2023-04-29T05:43:00;13.60;;;8.10;;
57249;SDS011;43102;52.014;-0.680;2023-04-29T05:44:00;13.60;;;8.10;;
57249;SDS011;43102;52.014;-0.680;2023-04-29T05:45:00;13.60;;;8.10;;
57249;SDS011;43102;52.014;-0.680;2023-04-29T05:46:00;13.60;;;8.10;;
57249;SDS011;43102;52.014;-0.680;2023-04-29T05:47:00;13.60;;;8.10;;
57249;SDS011;43102;52.014;-0.680;2023-04-29T05:48:00;13.60;;;8.10;;
57249;SDS011;43102;52.014;-0.680;2023-04-29T05:49:00;13.60;;;8.10;;
57249;SDS011;43102;52.014;-0.680;2023-04-29T05:50:00;13.60;;;8.10;;
57249;SDS011;43102;52.014;-0.680;2023-04-29T05:51:00;13.60;;;8.10;;
57249;SDS011;43102;52.014;-0.680;2023-04-29T05:52:05;13.60;;;8.10;;
57249;SDS011;43102;52.014;-0.680;2023-04-29T05:53:00;13.60;;;8.10;;
57249;SDS011;43102;52.014;-0.680;2023-04-29T05:54:00;9.50;;;6.90;;
57249;SDS011;43102;52.014;-0.680;2023-04-29T05:55:00;9.50;;;6.90;;
57249;SDS011;43102;52.014;-0.680;2023-04-29T05:56:03;9.50;;;6.90;;
57249;SDS011;43102;52.014;-0.680;2023-04-29T05:57:02;9.50;;;6.90;;
57249;SDS011;43102;52.014;-0.680;2023-04-29T05:58:00;9.50;;;6.90;;
57249;SDS011;43102;52.014;-0.680;2023-04-29T05:59:00;9.50;;;6.90;;
57249;SDS011;43102;52.014;-0.680;2023-04-29T06:00:00;9.50;;;6.90;;